메인 페이지
METAR-TAF:

METAR-TAF

공항 :

극북의 땅, 그린란드

위도: 76-32N, 경도: 068-42W, 고도: 77m

현재 날씨관측

예보는 59분 전, 16:56시(UTC)에 발표되었습니다.
서남서3kt
온도 -4°C
습도 63%
기압 1003 hPa
시정 10km 이상
맑음

METAR: BGTL 251656Z AUTO 25003KT 9999 CLR M04/M10 A2962 RMK AO2 SLP017 T10371099 TSNO $

시각: 14:55 (17:55 UTC)

예보

예보는 55분 전, 17:00시(UTC)에 발표되었습니다.
예보 대상 시간: 25일 17시부터 26일 23시까지 (UTC)
동남동6kt
시정 10km 이상
고도 4000ft 상공 흐림
전환 중
26일 02시부터 26일 03시까지 (UTC)
동남동6kt
시정: 9000m
고도 3000ft 상공 구름 많음
약한눈
전환 중
26일 10시부터 26일 11시까지 (UTC)
동남동15kt, 순간 최대 풍속 25kt
시정 10km 이상
고도 3000ft 상공 구름 보통
고도 5000ft 상공 구름 많음

TAF: BGTL 251700Z 2517/2623 12006KT 9999 OVC040 QNH2960INS BECMG 2602/2603 12006KT 9000 -SN BKN030 620309 QNH2973INS BECMG 2610/2611 11015G25KT 9999 NSW SCT030 BKN050 QNH2966INS TXM03/2520Z TNM09/2601Z

4,000개 이상의 공항 관측 자료 및 예보 (METAR 및 TAF 보고).

지도상에서 검색 가능한 기상관측소가 노란 점과 빨간 점으로 표시되어 있습니다.

기상관측소 명을 보려면 표시 위로 마우스를 이동하세요.

날씨 관측과 예보를 보려면 클릭하세요.

지도 변경 : 확대하려면 엑스 표시가 있는 녹색 버튼, 축소하려면 빼기 표시가 있는 녹색 버튼, 다음 페이지의 지도를 보려면 녹색 화살표를 클릭하세요.


METAR-TAF: